Time;durP1;ratioP1;P1;durP2;ratioP2;P2;SDS_P1;SDS_P2;PMS_P1;PMS_P2;Temp;Humidity;BMP_temperature;BMP_pressure;BME280_temperature;BME280_humidity;BME280_pressure;Samples;Min_cycle;Max_cycle;Signal;HPM_P1;HPM_P2
2022/04/23 00:00:39;;;;;;;1.43;1.30;;;13.00;83.30;;;;;;5091610;28;20659;-48
2022/04/23 00:03:06;;;;;;;1.33;1.23;;;13.00;83.00;;;;;;5097122;28;20197;-43
2022/04/23 00:05:33;;;;;;;1.40;1.30;;;13.00;82.60;;;;;;5102290;28;20661;-45
2022/04/23 00:08:01;;;;;;;1.13;1.13;;;13.10;82.60;;;;;;5094395;28;20221;-46
2022/04/23 00:10:28;;;;;;;1.10;1.00;;;13.00;82.40;;;;;;5091788;28;20205;-46
2022/04/23 00:12:55;;;;;;;1.30;1.20;;;13.00;82.50;;;;;;5100595;28;20304;-42
2022/04/23 00:15:25;;;;;;;1.40;1.30;;;13.10;82.50;;;;;;5097599;28;20205;-45
2022/04/23 00:17:54;;;;;;;4.30;1.50;;;13.10;82.50;;;;;;5095362;28;20567;-44
2022/04/23 00:20:23;;;;;;;1.47;1.37;;;13.10;82.40;;;;;;5101520;28;20708;-47
2022/04/23 00:22:50;;;;;;;1.23;1.20;;;13.20;82.30;;;;;;5105077;28;20201;-44
2022/04/23 00:25:17;;;;;;;2.17;1.80;;;13.10;82.10;;;;;;5081468;28;20202;-45
2022/04/23 00:27:44;;;;;;;1.97;1.50;;;13.10;82.20;;;;;;5096139;28;20202;-46
2022/04/23 00:30:30;;;;;;;3.47;1.87;;;13.10;82.10;;;;;;5091222;28;20203;-44
2022/04/23 00:33:01;;;;;;;2.90;1.90;;;13.10;82.00;;;;;;5097714;28;20544;-49
2022/04/23 00:35:28;;;;;;;3.90;1.93;;;13.00;81.90;;;;;;5102358;28;20233;-44
2022/04/23 00:37:55;;;;;;;2.33;1.80;;;13.00;82.10;;;;;;5093897;28;20190;-44
2022/04/23 00:40:24;;;;;;;2.07;1.53;;;12.90;82.20;;;;;;5081868;28;20189;-44
2022/04/23 00:42:53;;;;;;;2.00;1.30;;;12.90;82.20;;;;;;5098528;28;20192;-47
2022/04/23 00:45:20;;;;;;;1.63;1.20;;;12.80;82.40;;;;;;5096844;28;20217;-48
2022/04/23 00:47:47;;;;;;;1.40;1.23;;;12.80;82.60;;;;;;5095840;28;20300;-47
2022/04/23 00:50:20;;;;;;;2.13;1.27;;;12.80;82.70;;;;;;5089911;28;20665;-46
2022/04/23 00:52:48;;;;;;;0.90;0.90;;;12.70;82.60;;;;;;5095302;28;20205;-44
2022/04/23 00:55:17;;;;;;;1.00;1.00;;;12.70;82.70;;;;;;5088207;28;20688;-47
2022/04/23 00:57:44;;;;;;;2.33;1.20;;;12.70;82.60;;;;;;5094453;28;20671;-47
2022/04/23 01:00:12;;;;;;;1.10;1.00;;;12.80;82.60;;;;;;5103004;28;20204;-47
2022/04/23 01:02:40;;;;;;;2.17;1.50;;;12.80;82.50;;;;;;5099569;28;20203;-45
2022/04/23 01:05:08;;;;;;;2.10;1.70;;;12.70;82.40;;;;;;5088224;28;20264;-44
2022/04/23 01:07:39;;;;;;;2.10;1.50;;;12.70;82.50;;;;;;5100670;28;20228;-47
2022/04/23 01:10:08;;;;;;;2.50;1.83;;;12.80;82.30;;;;;;5102175;28;20188;-45
2022/04/23 01:12:36;;;;;;;1.60;1.50;;;12.80;82.20;;;;;;5108437;28;20220;-46
2022/04/23 01:15:06;;;;;;;1.50;1.40;;;12.80;82.20;;;;;;5105190;28;20616;-44
2022/04/23 01:17:34;;;;;;;1.27;1.03;;;12.80;82.20;;;;;;5091951;28;20197;-46
2022/04/23 01:20:06;;;;;;;1.40;1.30;;;12.80;82.40;;;;;;5089102;28;20271;-44
2022/04/23 01:22:34;;;;;;;1.23;1.13;;;12.70;82.50;;;;;;5092397;28;20296;-44
2022/04/23 01:25:04;;;;;;;1.17;1.07;;;12.70;82.60;;;;;;5094457;28;20277;-49
2022/04/23 01:27:32;;;;;;;3.33;1.43;;;12.70;82.70;;;;;;5098648;28;20550;-50
2022/04/23 01:29:59;;;;;;;1.10;1.10;;;12.70;82.80;;;;;;5087051;28;20200;-47
2022/04/23 01:32:26;;;;;;;1.60;1.37;;;12.60;82.70;;;;;;5081951;28;20678;-47
2022/04/23 01:34:53;;;;;;;1.60;1.50;;;12.70;82.90;;;;;;5091713;28;20216;-46
2022/04/23 01:37:22;;;;;;;3.30;1.80;;;12.70;82.70;;;;;;5095824;28;20396;-45
2022/04/23 01:39:50;;;;;;;1.50;1.40;;;12.70;82.60;;;;;;5087277;28;20194;-47
2022/04/23 01:42:19;;;;;;;3.80;1.43;;;12.80;82.60;;;;;;5093478;28;20185;-47
2022/04/23 01:44:46;;;;;;;1.40;1.30;;;12.70;82.60;;;;;;5097198;28;20192;-46
2022/04/23 01:47:14;;;;;;;3.03;1.67;;;12.70;82.70;;;;;;5088859;28;20191;-48
2022/04/23 01:49:41;;;;;;;1.80;1.20;;;12.60;82.90;;;;;;5086578;28;20224;-44
2022/04/23 01:52:09;;;;;;;1.30;1.20;;;12.60;83.10;;;;;;5090190;28;20214;-53
2022/04/23 01:54:38;;;;;;;1.40;1.30;;;12.50;83.10;;;;;;5087188;28;20201;-52
2022/04/23 01:57:06;;;;;;;2.13;1.50;;;12.50;83.30;;;;;;5095262;28;20204;-51
2022/04/23 01:59:33;;;;;;;1.50;1.37;;;12.50;83.60;;;;;;5094223;28;20200;-50
2022/04/23 02:02:01;;;;;;;1.20;1.20;;;12.50;83.60;;;;;;5092087;28;20564;-51
2022/04/23 02:04:28;;;;;;;1.30;1.20;;;12.50;83.70;;;;;;5091705;28;20212;-48
2022/04/23 02:06:55;;;;;;;1.30;1.20;;;12.40;83.60;;;;;;5103779;28;20246;-49
2022/04/23 02:09:23;;;;;;;2.83;1.33;;;12.30;83.70;;;;;;5095311;28;20195;-49
2022/04/23 02:11:51;;;;;;;2.57;1.33;;;12.30;83.90;;;;;;5096051;28;20271;-52
2022/04/23 02:14:19;;;;;;;1.57;1.47;;;12.30;84.00;;;;;;5097667;28;20553;-49
2022/04/23 02:16:46;;;;;;;1.43;1.30;;;12.40;84.00;;;;;;5100663;28;20252;-48
2022/04/23 02:19:13;;;;;;;1.17;1.17;;;12.30;83.90;;;;;;5101753;28;20653;-48
2022/04/23 02:21:40;;;;;;;1.63;1.53;;;12.30;83.90;;;;;;5097365;28;20189;-51
2022/04/23 02:24:08;;;;;;;1.63;1.53;;;12.40;84.10;;;;;;5081786;28;20193;-46
2022/04/23 02:26:35;;;;;;;3.00;1.63;;;12.40;83.90;;;;;;5104153;28;20196;-50
2022/04/23 02:29:04;;;;;;;2.10;1.90;;;12.40;83.80;;;;;;5094773;28;20195;-47
2022/04/23 02:31:32;;;;;;;2.20;1.97;;;12.50;83.70;;;;;;5102861;28;20192;-46
2022/04/23 02:33:59;;;;;;;2.07;1.60;;;12.40;83.50;;;;;;5097675;28;20203;-42
2022/04/23 02:36:26;;;;;;;1.20;1.20;;;12.50;83.60;;;;;;5098072;28;20223;-52
2022/04/23 02:38:53;;;;;;;2.67;1.40;;;12.50;83.50;;;;;;5098168;28;20665;-50
2022/04/23 02:41:20;;;;;;;1.40;1.30;;;12.50;83.50;;;;;;5096943;28;20197;-52
2022/04/23 02:43:47;;;;;;;2.17;1.20;;;12.40;83.30;;;;;;5091681;28;20261;-52
2022/04/23 02:46:16;;;;;;;1.53;1.43;;;12.40;83.30;;;;;;5097178;28;20205;-51
2022/04/23 02:48:44;;;;;;;2.23;1.73;;;12.40;83.50;;;;;;5094235;28;20599;-47
2022/04/23 02:51:15;;;;;;;1.60;1.50;;;12.40;83.40;;;;;;5093580;28;20687;-51
2022/04/23 02:53:43;;;;;;;1.53;1.43;;;12.40;83.30;;;;;;5097406;28;20602;-54
2022/04/23 02:56:13;;;;;;;3.20;1.80;;;12.40;83.30;;;;;;5099090;28;20707;-49
2022/04/23 02:58:41;;;;;;;1.83;1.73;;;12.40;83.20;;;;;;5099703;28;20200;-48
2022/04/23 03:01:10;;;;;;;1.93;1.70;;;12.40;83.10;;;;;;5091963;28;20203;-46
2022/04/23 03:03:40;;;;;;;2.10;1.90;;;12.40;83.00;;;;;;5092839;28;20197;-44
2022/04/23 03:06:07;;;;;;;1.33;1.30;;;12.30;82.90;;;;;;5097837;28;20260;-45
2022/04/23 03:08:36;;;;;;;1.50;1.40;;;12.30;83.00;;;;;;5096334;28;20257;-50
2022/04/23 03:11:03;;;;;;;1.60;1.50;;;12.30;82.90;;;;;;5087535;28;20205;-44
2022/04/23 03:13:30;;;;;;;1.80;1.53;;;12.30;83.00;;;;;;5091613;28;20206;-43
2022/04/23 03:15:57;;;;;;;1.30;1.30;;;12.20;82.90;;;;;;5092106;28;20217;-43
2022/04/23 03:18:26;;;;;;;1.40;1.30;;;12.20;83.00;;;;;;5099000;28;20726;-44
2022/04/23 03:20:55;;;;;;;1.30;1.20;;;12.20;83.10;;;;;;5101140;28;20192;-46
2022/04/23 03:23:22;;;;;;;2.10;1.90;;;12.20;83.00;;;;;;5096466;28;20705;-44
2022/04/23 03:25:49;;;;;;;2.57;2.03;;;12.20;83.10;;;;;;5097131;28;20194;-42
2022/04/23 03:28:17;;;;;;;2.30;2.10;;;12.20;83.00;;;;;;5089502;28;20222;-42
2022/04/23 03:30:44;;;;;;;1.83;1.73;;;12.30;83.00;;;;;;5091723;28;20192;-48
2022/04/23 03:33:12;;;;;;;2.40;1.87;;;12.20;83.00;;;;;;5090585;28;20240;-42
2022/04/23 03:35:39;;;;;;;3.83;2.10;;;12.20;83.10;;;;;;5109409;28;20196;-47
2022/04/23 03:38:08;;;;;;;2.00;1.90;;;12.20;83.10;;;;;;5090719;28;20520;-44
2022/04/23 03:40:36;;;;;;;2.20;2.00;;;12.30;83.30;;;;;;5099008;28;20188;-47
2022/04/23 03:43:03;;;;;;;4.33;2.37;;;12.30;83.40;;;;;;5090661;28;20280;-47
2022/04/23 03:45:32;;;;;;;3.80;2.40;;;12.30;83.60;;;;;;5081176;28;20720;-43
2022/04/23 03:48:01;;;;;;;2.00;1.47;;;12.20;84.20;;;;;;5087646;28;20518;-46
2022/04/23 03:50:29;;;;;;;1.60;1.50;;;12.20;83.60;;;;;;5095615;28;20206;-46
2022/04/23 03:52:57;;;;;;;1.50;1.40;;;12.20;83.70;;;;;;5082836;28;20212;-45
2022/04/23 03:55:26;;;;;;;1.40;1.30;;;12.10;83.80;;;;;;5093096;28;20738;-47
2022/04/23 03:57:54;;;;;;;1.40;1.30;;;12.10;84.00;;;;;;5097454;28;20575;-47
2022/04/23 04:00:22;;;;;;;1.77;1.40;;;12.10;84.20;;;;;;5092723;28;20295;-45
2022/04/23 04:02:50;;;;;;;1.77;1.30;;;12.00;84.30;;;;;;5085131;28;20213;-44
2022/04/23 04:05:18;;;;;;;1.37;1.30;;;12.10;84.50;;;;;;5093817;28;20195;-42
2022/04/23 04:07:47;;;;;;;1.47;1.37;;;12.10;85.00;;;;;;5090229;28;20202;-42
2022/04/23 04:10:17;;;;;;;1.50;1.40;;;12.10;84.60;;;;;;5091364;28;20189;-47
2022/04/23 04:12:46;;;;;;;3.67;1.90;;;12.10;84.60;;;;;;5103093;28;20263;-45
2022/04/23 04:15:15;;;;;;;1.73;1.63;;;12.10;84.50;;;;;;5090094;28;20250;-46
2022/04/23 04:17:44;;;;;;;1.60;1.50;;;12.20;84.50;;;;;;5093784;28;20194;-41
2022/04/23 04:20:13;;;;;;;1.73;1.63;;;12.20;84.50;;;;;;5090012;28;20723;-44
2022/04/23 04:22:40;;;;;;;3.47;1.97;;;12.20;84.50;;;;;;5100799;28;20202;-45
2022/04/23 04:25:08;;;;;;;3.40;1.83;;;12.20;84.60;;;;;;5095820;28;20273;-48
2022/04/23 04:27:36;;;;;;;3.10;2.30;;;12.20;84.60;;;;;;5091042;28;20296;-47
2022/04/23 04:30:06;;;;;;;5.50;2.60;;;12.20;84.80;;;;;;5099723;28;20568;-43
2022/04/23 04:32:33;;;;;;;2.90;2.40;;;12.30;85.10;;;;;;5096445;28;20202;-44
2022/04/23 04:35:00;;;;;;;6.83;2.40;;;12.30;85.20;;;;;;5103052;28;20208;-46
2022/04/23 04:37:28;;;;;;;5.10;2.93;;;12.30;85.20;;;;;;5085279;28;20730;-47
2022/04/23 04:39:55;;;;;;;4.80;2.27;;;12.30;85.10;;;;;;5097445;28;20287;-49
2022/04/23 04:42:22;;;;;;;3.33;2.07;;;12.30;85.20;;;;;;5098128;28;20218;-45
2022/04/23 04:44:50;;;;;;;2.70;2.10;;;12.30;85.30;;;;;;5092757;28;20188;-46
2022/04/23 04:47:19;;;;;;;5.00;2.50;;;12.30;85.30;;;;;;5099134;28;20194;-47
2022/04/23 04:49:46;;;;;;;3.93;2.87;;;12.30;85.30;;;;;;5098897;28;20303;-43
2022/04/23 04:52:13;;;;;;;7.10;2.73;;;12.30;85.30;;;;;;5096567;28;20215;-45
2022/04/23 04:54:40;;;;;;;2.43;2.23;;;12.30;85.40;;;;;;5097610;28;20207;-42
2022/04/23 04:57:07;;;;;;;6.00;1.90;;;11.20;84.30;;;;;;5089215;28;20598;-49
2022/04/23 04:59:35;;;;;;;3.37;1.90;;;12.40;85.60;;;;;;5095461;28;20214;-49
2022/04/23 05:02:03;;;;;;;2.13;1.70;;;12.40;85.60;;;;;;5103364;28;20192;-53
2022/04/23 05:04:31;;;;;;;1.57;1.47;;;12.40;85.50;;;;;;5089858;28;20197;-48
2022/04/23 05:06:58;;;;;;;1.50;1.40;;;12.50;85.60;;;;;;5100210;28;20230;-50
2022/04/23 05:09:26;;;;;;;1.70;1.50;;;12.50;85.60;;;;;;5092589;28;20283;-48
2022/04/23 05:11:53;;;;;;;1.80;1.60;;;12.60;85.50;;;;;;5096187;28;20681;-49
2022/04/23 05:14:20;;;;;;;4.43;1.93;;;12.60;85.40;;;;;;5098130;28;20216;-51
2022/04/23 05:16:47;;;;;;;1.93;1.83;;;12.60;85.30;;;;;;5101398;28;20200;-48
2022/04/23 05:19:14;;;;;;;2.20;1.93;;;12.70;85.30;;;;;;5100903;28;20200;-45
2022/04/23 05:21:43;;;;;;;1.87;1.70;;;12.70;85.10;;;;;;5109596;28;20188;-51
2022/04/23 05:24:10;;;;;;;2.00;1.90;;;12.80;85.10;;;;;;5090850;28;20212;-50
2022/04/23 05:26:37;;;;;;;2.10;1.93;;;12.90;84.90;;;;;;5097196;28;20198;-53
2022/04/23 05:29:04;;;;;;;2.60;2.30;;;12.90;84.60;;;;;;5099818;28;20200;-48
2022/04/23 05:31:33;;;;;;;2.10;1.90;;;13.00;84.50;;;;;;5093849;28;20369;-46
2022/04/23 05:34:00;;;;;;;2.23;2.03;;;13.00;84.40;;;;;;5100940;28;20623;-53
2022/04/23 05:36:27;;;;;;;3.53;2.63;;;13.10;84.30;;;;;;5099178;28;20208;-52
2022/04/23 05:38:56;;;;;;;2.97;1.97;;;13.10;84.00;;;;;;5086270;28;20564;-48
2022/04/23 05:41:23;;;;;;;4.67;2.20;;;13.10;83.90;;;;;;5095499;28;20196;-50
2022/04/23 05:43:50;;;;;;;6.17;2.43;;;13.10;83.70;;;;;;5089007;28;20196;-43
2022/04/23 05:46:17;;;;;;;5.30;3.00;;;13.10;83.50;;;;;;5091052;28;20639;-49
2022/04/23 05:48:45;;;;;;;2.53;2.33;;;13.20;83.20;;;;;;5094572;28;20234;-48
2022/04/23 05:51:12;;;;;;;2.23;1.97;;;13.30;83.10;;;;;;5093466;28;20198;-51
2022/04/23 05:53:39;;;;;;;1.93;1.80;;;13.30;82.80;;;;;;5096302;28;20239;-52
2022/04/23 05:56:08;;;;;;;1.60;1.50;;;13.40;82.80;;;;;;5099252;28;20568;-48
2022/04/23 05:58:36;;;;;;;3.97;1.97;;;13.40;82.60;;;;;;5102519;28;20192;-53
2022/04/23 06:01:04;;;;;;;1.93;1.83;;;13.50;82.40;;;;;;5096351;28;20201;-46
2022/04/23 06:03:31;;;;;;;1.90;1.80;;;13.50;81.90;;;;;;5101557;28;20189;-47
2022/04/23 06:05:58;;;;;;;5.00;1.80;;;13.60;81.60;;;;;;5096783;28;20665;-46
2022/04/23 06:08:25;;;;;;;3.30;2.10;;;13.70;81.60;;;;;;5101087;28;20246;-50
2022/04/23 06:10:52;;;;;;;1.47;1.30;;;13.80;81.40;;;;;;5097030;28;20196;-48
2022/04/23 06:13:20;;;;;;;6.33;2.47;;;13.80;81.20;;;;;;5100741;28;20566;-48
2022/04/23 06:15:47;;;;;;;2.63;2.43;;;13.90;80.70;;;;;;5109575;27;20212;-51
2022/04/23 06:18:14;;;;;;;8.83;2.40;;;14.00;80.00;;;;;;5099221;28;20227;-49
2022/04/23 06:20:42;;;;;;;3.37;2.27;;;14.00;79.60;;;;;;5087352;28;20267;-51
2022/04/23 06:23:09;;;;;;;4.23;2.80;;;14.10;79.50;;;;;;5091425;28;20652;-49
2022/04/23 06:25:36;;;;;;;3.83;3.13;;;14.10;78.90;;;;;;5096151;28;20191;-52
2022/04/23 06:28:04;;;;;;;4.00;2.90;;;14.20;78.70;;;;;;5097761;28;20198;-49
2022/04/23 06:30:33;;;;;;;4.63;2.53;;;14.20;78.00;;;;;;5095672;28;20290;-46
2022/04/23 06:33:00;;;;;;;3.70;2.53;;;14.20;77.60;;;;;;5095054;28;20664;-44
2022/04/23 06:35:27;;;;;;;3.43;2.37;;;14.30;77.50;;;;;;5093623;28;20221;-49
2022/04/23 06:37:55;;;;;;;6.67;2.60;;;14.30;77.30;;;;;;5091124;28;20273;-46
2022/04/23 06:40:23;;;;;;;4.40;2.60;;;14.30;77.30;;;;;;5075510;28;20202;-48
2022/04/23 06:42:50;;;;;;;2.77;2.47;;;14.40;76.90;;;;;;5080856;28;20559;-49
2022/04/23 06:45:20;;;;;;;7.63;2.53;;;14.40;76.90;;;;;;5095388;28;20236;-44
2022/04/23 06:47:57;;;;;;;2.83;2.60;;;14.50;76.60;;;;;;5109243;28;20197;-51
2022/04/23 06:50:24;;;;;;;4.70;3.00;;;14.50;76.10;;;;;;5085717;28;20607;-51
2022/04/23 06:52:52;;;;;;;7.93;3.53;;;14.60;75.90;;;;;;5097865;28;20195;-45
2022/04/23 06:55:19;;;;;;;6.50;3.10;;;14.70;75.40;;;;;;5104496;28;20271;-52
2022/04/23 06:57:46;;;;;;;6.33;3.20;;;14.70;75.20;;;;;;5106815;28;20194;-52
2022/04/23 07:00:14;;;;;;;13.63;2.97;;;14.70;75.00;;;;;;5107875;28;20751;-52
2022/04/23 07:02:42;;;;;;;5.10;3.30;;;14.80;74.70;;;;;;5103862;28;20205;-49
2022/04/23 07:05:11;;;;;;;3.37;2.43;;;14.90;74.30;;;;;;5101742;28;20197;-50
2022/04/23 07:07:38;;;;;;;3.97;3.00;;;14.80;74.30;;;;;;5097554;28;20203;-52
2022/04/23 07:10:06;;;;;;;2.70;2.50;;;14.90;74.10;;;;;;5107876;28;20682;-50
2022/04/23 07:12:34;;;;;;;4.63;3.30;;;15.00;74.40;;;;;;5097551;28;20208;-52
2022/04/23 07:15:02;;;;;;;4.20;2.90;;;15.00;73.90;;;;;;5106639;28;20302;-51
2022/04/23 07:17:30;;;;;;;2.93;2.63;;;15.00;74.00;;;;;;5099837;28;20192;-46
2022/04/23 07:19:57;;;;;;;2.67;2.47;;;15.10;74.30;;;;;;5101112;28;20194;-46
2022/04/23 07:22:26;;;;;;;2.20;2.10;;;15.20;74.70;;;;;;5094648;28;20212;-51
2022/04/23 07:24:53;;;;;;;4.77;2.03;;;15.20;74.80;;;;;;5099847;28;20196;-50
2022/04/23 07:27:20;;;;;;;1.70;1.60;;;15.30;75.00;;;;;;5092264;28;20624;-48
2022/04/23 07:29:47;;;;;;;2.27;2.07;;;15.40;75.10;;;;;;5094330;28;20298;-48
2022/04/23 07:32:15;;;;;;;2.17;2.03;;;15.50;75.00;;;;;;5095164;28;20704;-48
2022/04/23 07:37:31;;;;;;;3.60;2.33;;;15.70;74.60;;;;;;5100438;28;20192;-51
2022/04/23 07:39:59;;;;;;;2.20;2.00;;;15.80;74.20;;;;;;5088257;28;20659;-47
2022/04/23 07:42:27;;;;;;;3.60;3.30;;;15.90;73.90;;;;;;5090616;28;20201;-45
2022/04/23 07:44:54;;;;;;;6.10;3.07;;;15.90;73.20;;;;;;5081617;28;20243;-45
2022/04/23 07:47:22;;;;;;;3.17;2.87;;;16.00;73.00;;;;;;5099789;28;20195;-51
2022/04/23 07:49:49;;;;;;;3.13;2.83;;;16.10;72.70;;;;;;5106428;28;20233;-46
2022/04/23 07:52:17;;;;;;;4.33;2.83;;;16.20;72.60;;;;;;5109363;28;20188;-50
2022/04/23 07:54:46;;;;;;;4.43;3.43;;;16.30;72.30;;;;;;5104175;28;20209;-48
2022/04/23 07:57:13;;;;;;;6.93;3.83;;;16.30;71.90;;;;;;5107351;28;20192;-46
2022/04/23 07:59:41;;;;;;;5.00;3.83;;;16.40;71.70;;;;;;5102132;27;20284;-44
2022/04/23 08:02:09;;;;;;;3.30;2.83;;;16.50;71.40;;;;;;5100392;28;20283;-50
2022/04/23 08:04:36;;;;;;;7.57;3.17;;;16.50;71.30;;;;;;5096130;28;20201;-47
2022/04/23 08:07:04;;;;;;;4.17;2.70;;;16.60;71.40;;;;;;5104414;28;20685;-47
2022/04/23 08:09:31;;;;;;;2.43;2.23;;;16.70;71.60;;;;;;5099607;28;20200;-49
2022/04/23 08:12:00;;;;;;;5.17;2.83;;;16.80;71.50;;;;;;5102184;27;20200;-47
2022/04/23 08:14:27;;;;;;;7.00;3.47;;;16.80;70.80;;;;;;5096925;28;20206;-52
2022/04/23 08:16:54;;;;;;;4.27;3.20;;;16.90;70.00;;;;;;5096666;28;20612;-45
2022/04/23 08:19:23;;;;;;;4.63;3.20;;;16.90;70.10;;;;;;5080951;28;20201;-48
2022/04/23 08:21:50;;;;;;;4.20;3.10;;;16.90;70.40;;;;;;5099219;28;20192;-52
2022/04/23 08:24:19;;;;;;;3.20;3.00;;;17.00;70.80;;;;;;5093414;28;20528;-50
2022/04/23 08:26:46;;;;;;;4.47;3.20;;;17.00;72.00;;;;;;5085042;28;20667;-50
2022/04/23 08:31:59;;;;;;;5.10;2.70;;;17.00;71.80;;;;;;5093373;28;20279;-51
2022/04/23 08:34:26;;;;;;;2.53;2.30;;;17.00;72.20;;;;;;5093627;28;20211;-46
2022/04/23 08:36:54;;;;;;;3.80;2.43;;;17.10;72.60;;;;;;5096873;28;20583;-50
2022/04/23 08:39:21;;;;;;;3.17;2.70;;;17.10;72.90;;;;;;5083351;28;20266;-51
2022/04/23 08:41:48;;;;;;;2.93;2.37;;;17.20;73.10;;;;;;5086183;28;20231;-49
2022/04/23 08:44:17;;;;;;;1.93;1.80;;;17.30;73.00;;;;;;5093860;28;20216;-48
2022/04/23 08:46:45;;;;;;;4.63;1.80;;;17.40;72.90;;;;;;5105970;28;20211;-43
2022/04/23 08:49:14;;;;;;;4.43;1.77;;;17.40;72.60;;;;;;5108026;28;20285;-49
2022/04/23 08:51:45;;;;;;;3.03;2.57;;;17.50;72.60;;;;;;5091226;28;20227;-51
2022/04/23 08:54:13;;;;;;;4.17;2.67;;;17.50;71.60;;;;;;5094781;28;20199;-50
2022/04/23 08:56:42;;;;;;;4.40;2.27;;;17.60;71.30;;;;;;5103672;28;20201;-44
2022/04/23 08:59:11;;;;;;;2.93;2.60;;;17.60;70.60;;;;;;5107789;28;20196;-52
2022/04/23 09:01:40;;;;;;;3.67;2.60;;;17.70;69.90;;;;;;5102141;28;20294;-48
2022/04/23 09:04:09;;;;;;;4.13;2.80;;;17.70;69.50;;;;;;5105271;28;20197;-49
2022/04/23 09:06:38;;;;;;;2.53;2.10;;;17.70;69.40;;;;;;5104427;28;20268;-46
2022/04/23 09:09:12;;;;;;;6.00;2.15;;;17.80;69.30;;;;;;5102407;28;20232;-49
2022/04/23 09:11:40;;;;;;;3.90;3.10;;;17.80;68.80;;;;;;5106408;28;20190;-43
2022/04/23 09:14:09;;;;;;;3.83;2.43;;;17.90;67.90;;;;;;5099973;27;20224;-51
2022/04/23 09:25:07;;;;;;;4.93;2.37;;;17.90;66.70;;;;;;5099109;28;20309;-47
2022/04/23 09:27:35;;;;;;;3.00;2.30;;;17.80;66.70;;;;;;5087303;28;20269;-49
2022/04/23 09:30:04;;;;;;;2.60;1.90;;;17.90;67.00;;;;;;5107075;28;20235;-44
2022/04/23 09:32:33;;;;;;;2.43;2.00;;;17.90;67.10;;;;;;5093406;28;20203;-44
2022/04/23 09:35:11;;;;;;;2.77;2.40;;;18.00;66.90;;;;;;5084856;28;20286;-43
2022/04/23 09:40:26;;;;;;;2.77;2.00;;;18.20;66.20;;;;;;5095490;28;20277;-44
2022/04/23 09:42:57;;;;;;;3.90;2.55;;;18.20;66.20;;;;;;5101164;28;20312;-45
2022/04/23 09:45:28;;;;;;;2.15;1.95;;;18.30;65.50;;;;;;5084289;28;20289;-43
2022/04/23 09:47:58;;;;;;;2.28;1.73;;;18.30;65.10;;;;;;5111020;28;20285;-44
2022/04/23 09:50:25;;;;;;;4.20;2.27;;;18.40;64.80;;;;;;5099216;28;20652;-44
2022/04/23 09:52:53;;;;;;;2.23;2.03;;;18.50;64.00;;;;;;5109222;28;20192;-43
2022/04/23 09:55:22;;;;;;;1.67;1.58;;;18.50;63.10;;;;;;5097391;28;20319;-48
2022/04/23 09:57:49;;;;;;;4.05;1.90;;;18.50;62.60;;;;;;5107881;28;20231;-45
2022/04/23 10:00:18;;;;;;;1.95;1.80;;;18.50;62.20;;;;;;5103173;28;20705;-45
2022/04/23 10:02:47;;;;;;;3.77;1.60;;;18.50;61.80;;;;;;5103180;28;20199;-43
2022/04/23 10:05:19;;;;;;;1.70;1.60;;;18.40;61.70;;;;;;5084611;28;20241;-45
2022/04/23 10:07:50;;;;;;;1.35;1.25;;;18.50;62.20;;;;;;5104654;28;20267;-41
2022/04/23 10:10:19;;;;;;;1.38;1.33;;;18.50;62.40;;;;;;5100477;28;20658;-44
2022/04/23 10:12:47;;;;;;;2.20;1.48;;;18.60;62.00;;;;;;5103570;28;20202;-42
2022/04/23 10:15:15;;;;;;;1.73;1.63;;;18.60;61.90;;;;;;5108251;28;20237;-44
2022/04/23 10:17:44;;;;;;;4.28;1.70;;;18.70;61.80;;;;;;5098310;28;20196;-48
2022/04/23 10:20:13;;;;;;;2.22;1.83;;;18.70;61.50;;;;;;5102061;27;20567;-45
2022/04/23 10:22:55;;;;;;;2.13;1.70;;;18.70;61.70;;;;;;5097016;27;20560;-42
2022/04/23 10:25:30;;;;;;;3.50;2.10;;;18.60;61.80;;;;;;5082686;28;20200;-43
2022/04/23 10:27:59;;;;;;;6.63;2.10;;;18.60;61.90;;;;;;5093263;28;20641;-42
2022/04/23 10:30:31;;;;;;;2.33;2.05;;;18.50;61.80;;;;;;5103018;28;20275;-46
2022/04/23 10:32:59;;;;;;;4.65;2.60;;;18.40;62.40;;;;;;5102311;28;20206;-45
2022/04/23 10:35:33;;;;;;;3.10;1.80;;;18.30;62.60;;;;;;5100639;27;20206;-48
2022/04/23 10:38:20;;;;;;;3.00;1.77;;;18.20;63.00;;;;;;5097257;28;20327;-43
2022/04/23 10:40:47;;;;;;;8.53;2.33;;;18.30;63.30;;;;;;5089656;28;20191;-45
2022/04/23 10:43:19;;;;;;;2.63;2.03;;;18.30;63.40;;;;;;5101578;28;20233;-48
2022/04/23 10:45:48;;;;;;;5.97;2.20;;;18.30;63.60;;;;;;5100124;28;20204;-52
2022/04/23 10:48:26;;;;;;;2.17;1.67;;;18.30;63.60;;;;;;5108711;28;20562;-51
2022/04/23 10:51:05;;;;;;;1.75;1.58;;;18.30;63.70;;;;;;5110283;28;20199;-45
2022/04/23 10:53:55;;;;;;;2.33;2.13;;;18.30;63.30;;;;;;5106996;28;20671;-51
2022/04/23 10:56:23;;;;;;;5.13;2.00;;;18.30;62.80;;;;;;5106243;28;20206;-49
2022/04/23 10:58:52;;;;;;;3.13;1.80;;;18.20;62.40;;;;;;5109496;28;20285;-48
2022/04/23 11:01:23;;;;;;;5.38;2.40;;;18.20;62.40;;;;;;5103880;28;20561;-49
2022/04/23 11:04:06;;;;;;;6.60;2.10;;;18.10;62.40;;;;;;5105082;27;20313;-52
2022/04/23 11:12:52;;;;;;;5.37;2.37;;;18.30;62.80;;;;;;5039278;28;20204;-50
2022/04/23 11:15:20;;;;;;;4.40;2.33;;;18.30;62.40;;;;;;5034604;28;20216;-52
2022/04/23 11:17:53;;;;;;;2.08;1.70;;;18.40;62.40;;;;;;5052614;28;20215;-47
2022/04/23 11:20:39;;;;;;;2.22;2.10;;;18.40;62.50;;;;;;5105129;28;20591;-52
2022/04/23 11:23:07;;;;;;;2.35;1.83;;;18.50;62.40;;;;;;5096066;28;20202;-52
2022/04/23 11:25:35;;;;;;;3.05;2.15;;;18.50;62.50;;;;;;5088405;28;20199;-52
2022/04/23 11:28:18;;;;;;;4.22;2.45;;;18.50;62.40;;;;;;5099737;28;20548;-51
2022/04/23 11:30:46;;;;;;;5.32;2.30;;;18.60;62.40;;;;;;5098777;28;20660;-51
2022/04/23 11:33:13;;;;;;;1.93;1.73;;;18.50;62.20;;;;;;5100691;28;20245;-52
2022/04/23 11:35:42;;;;;;;3.88;2.13;;;18.50;62.60;;;;;;5098137;28;20213;-52
2022/04/23 11:38:19;;;;;;;2.58;1.98;;;18.50;62.60;;;;;;5096575;28;20203;-47
2022/04/23 11:40:48;;;;;;;2.42;1.70;;;18.60;62.70;;;;;;5106762;27;20191;-48
2022/04/23 11:43:29;;;;;;;2.17;2.07;;;18.60;62.50;;;;;;5099010;28;20191;-45
2022/04/23 11:46:02;;;;;;;2.45;1.92;;;18.70;62.50;;;;;;5088080;28;20202;-45
2022/04/23 11:48:39;;;;;;;1.33;1.30;;;18.70;62.40;;;;;;5092649;28;20681;-52
2022/04/23 11:51:07;;;;;;;1.80;1.67;;;18.80;62.40;;;;;;5102038;28;20203;-50
2022/04/23 11:53:52;;;;;;;2.45;2.17;;;18.90;62.00;;;;;;5106774;28;20286;-51
2022/04/23 11:56:25;;;;;;;1.75;1.60;;;18.90;61.10;;;;;;5107491;28;20203;-48
2022/04/23 11:58:54;;;;;;;2.83;1.98;;;18.90;61.20;;;;;;5108585;28;20655;-47
2022/04/23 12:01:26;;;;;;;2.50;2.17;;;18.90;60.40;;;;;;5106153;28;20306;-45
2022/04/23 12:03:55;;;;;;;2.20;1.92;;;18.80;59.90;;;;;;5097640;28;20200;-51
2022/04/23 12:06:22;;;;;;;4.05;2.13;;;18.80;60.10;;;;;;5101546;28;20231;-42
2022/04/23 12:08:49;;;;;;;2.45;1.85;;;18.80;60.10;;;;;;5107972;28;20520;-49
2022/04/23 12:11:28;;;;;;;4.22;2.20;;;18.80;60.20;;;;;;5099411;28;20840;-50
2022/04/23 12:13:55;;;;;;;2.53;2.33;;;18.80;59.80;;;;;;5104756;28;20223;-47
2022/04/23 12:16:36;;;;;;;3.78;2.05;;;18.80;59.40;;;;;;5102362;28;20235;-45
2022/04/23 12:19:05;;;;;;;3.72;2.63;;;18.70;59.40;;;;;;5094298;28;20572;-45
2022/04/23 12:21:34;;;;;;;2.80;2.13;;;18.70;59.30;;;;;;5100578;28;20202;-45
2022/04/23 12:24:02;;;;;;;187.77;42.63;;;18.70;59.40;;;;;;5086492;28;20201;-49
2022/04/23 12:26:35;;;;;;;25.10;8.23;;;18.70;60.70;;;;;;5099141;28;20192;-48
